createdAt,value
2024-04-22T00:00:49.218Z,28.38
2024-04-22T00:01:49.197Z,28.39
2024-04-22T00:02:49.255Z,28.40
2024-04-22T00:03:49.247Z,28.39
2024-04-22T00:04:49.207Z,28.39
2024-04-22T00:05:49.174Z,28.39
2024-04-22T00:06:49.190Z,28.43
2024-04-22T00:07:49.188Z,28.38
2024-04-22T00:08:49.183Z,28.41
2024-04-22T00:09:49.194Z,28.38
2024-04-22T00:10:49.277Z,28.39
2024-04-22T00:11:49.204Z,28.42
2024-04-22T00:12:49.184Z,28.37
2024-04-22T00:13:49.193Z,28.38
2024-04-22T00:14:49.221Z,28.40
2024-04-22T00:15:49.269Z,28.35
2024-04-22T00:16:49.431Z,28.38
2024-04-22T00:17:49.267Z,28.37
2024-04-22T00:18:49.224Z,28.39
2024-04-22T00:19:49.208Z,28.41
2024-04-22T00:20:49.210Z,28.41
2024-04-22T00:21:49.300Z,28.45
2024-04-22T00:22:49.216Z,28.42
2024-04-22T00:23:49.243Z,28.43
2024-04-22T00:24:49.249Z,28.40
2024-04-22T00:25:49.270Z,28.40
2024-04-22T00:26:49.257Z,28.41
2024-04-22T00:27:49.245Z,28.38
2024-04-22T00:28:49.247Z,28.40
2024-04-22T00:29:49.337Z,28.40
2024-04-22T00:30:49.261Z,28.39
2024-04-22T00:31:49.349Z,28.37
2024-04-22T00:32:49.481Z,28.37
2024-04-22T00:33:49.531Z,28.35
2024-04-22T00:34:49.583Z,28.36
2024-04-22T00:35:49.683Z,28.34
2024-04-22T00:36:49.816Z,28.39
2024-04-22T00:37:49.827Z,28.39
2024-04-22T00:38:49.979Z,28.40
2024-04-22T00:39:49.957Z,28.41
2024-04-22T00:40:50.081Z,28.38
2024-04-22T00:41:50.147Z,28.42
2024-04-22T00:42:50.203Z,28.36
2024-04-22T00:43:50.294Z,28.41
2024-04-22T00:44:50.377Z,28.39
2024-04-22T00:45:50.491Z,28.41
2024-04-22T00:46:50.527Z,28.37
2024-04-22T00:47:51.195Z,28.42
2024-04-22T00:48:50.640Z,28.38
2024-04-22T00:49:50.748Z,28.42
2024-04-22T00:50:50.848Z,28.42
2024-04-22T00:51:50.927Z,28.39
2024-04-22T00:52:50.993Z,28.41
2024-04-22T00:53:51.056Z,28.35
2024-04-22T00:54:51.173Z,28.42
2024-04-22T00:55:51.252Z,28.39
2024-04-22T00:56:51.343Z,28.37
2024-04-22T00:57:51.415Z,28.37
2024-04-22T00:58:51.502Z,28.36
2024-04-22T00:59:51.565Z,28.40
2024-04-22T01:00:51.680Z,28.45
2024-04-22T01:01:51.705Z,28.46
2024-04-22T01:02:51.847Z,28.43
2024-04-22T01:03:51.901Z,28.43
2024-04-22T01:04:51.991Z,28.44
2024-04-22T01:05:51.964Z,28.44
2024-04-22T01:06:52.077Z,28.37
2024-04-22T01:07:52.114Z,28.37
2024-04-22T01:08:52.207Z,28.40
2024-04-22T01:09:52.271Z,28.38
2024-04-22T01:10:52.373Z,28.40
2024-04-22T01:11:52.455Z,28.39
2024-04-22T01:12:52.526Z,28.34
2024-04-22T01:13:52.607Z,28.38
2024-04-22T01:14:52.723Z,28.39
2024-04-22T01:15:52.746Z,28.40
2024-04-22T01:16:52.884Z,28.41
2024-04-22T01:17:52.992Z,28.40
2024-04-22T01:18:52.962Z,28.40
2024-04-22T01:19:53.046Z,28.41
2024-04-22T01:20:53.158Z,28.45
2024-04-22T01:21:53.232Z,28.39
2024-04-22T01:22:53.295Z,28.39
2024-04-22T01:23:53.464Z,28.42
2024-04-22T01:24:53.435Z,28.40
2024-04-22T01:25:53.527Z,28.44
2024-04-22T01:26:53.620Z,28.42
2024-04-22T01:27:53.660Z,28.43
2024-04-22T01:28:53.728Z,28.42
2024-04-22T01:29:53.842Z,28.41
2024-04-22T01:30:53.933Z,28.44
2024-04-22T01:31:53.998Z,28.45
2024-04-22T01:32:54.230Z,28.42
2024-04-22T01:33:54.129Z,28.44
2024-04-22T01:34:54.222Z,28.42
2024-04-22T01:35:54.299Z,28.42
2024-04-22T01:36:54.401Z,28.39
2024-04-22T01:37:54.492Z,28.40
2024-04-22T01:38:54.597Z,28.42
2024-04-22T01:39:54.628Z,28.42
2024-04-22T01:40:54.703Z,28.45
2024-04-22T01:41:54.787Z,28.46
2024-04-22T01:42:54.856Z,28.43
2024-04-22T01:43:54.959Z,28.44
2024-04-22T01:44:55.007Z,28.42
2024-04-22T01:45:55.126Z,28.41
2024-04-22T01:46:55.238Z,28.41
2024-04-22T01:47:55.269Z,28.44
2024-04-22T01:48:55.315Z,28.45
2024-04-22T01:49:55.365Z,28.43
2024-04-22T01:50:55.418Z,28.45
2024-04-22T01:51:55.485Z,28.43
2024-04-22T01:52:55.566Z,28.41
2024-04-22T01:53:55.635Z,28.41
2024-04-22T01:54:55.687Z,28.39
2024-04-22T01:55:55.784Z,28.41
2024-04-22T01:56:55.871Z,28.41
2024-04-22T01:57:56.011Z,28.42
2024-04-22T01:58:56.003Z,28.44
2024-04-22T01:59:56.075Z,28.42
2024-04-22T02:00:56.146Z,28.42
2024-04-22T02:01:56.206Z,28.39
2024-04-22T02:02:56.379Z,28.44
2024-04-22T02:03:56.384Z,28.45
2024-04-22T02:04:56.446Z,28.47
2024-04-22T02:05:56.510Z,28.44
2024-04-22T02:06:56.650Z,28.41
2024-04-22T02:07:56.669Z,28.42
2024-04-22T02:08:56.702Z,28.40
2024-04-22T02:10:02.890Z,28.45
2024-04-22T02:10:57.895Z,28.43
2024-04-22T02:11:56.779Z,28.42
2024-04-22T02:12:56.791Z,28.41
2024-04-22T02:13:56.962Z,28.44
2024-04-22T02:14:56.793Z,28.42
2024-04-22T02:15:56.805Z,28.42
2024-04-22T02:16:56.843Z,28.41
2024-04-22T02:17:56.927Z,28.41
2024-04-22T02:18:56.900Z,28.46
2024-04-22T02:19:56.932Z,28.46
2024-04-22T02:20:56.890Z,28.47
2024-04-22T02:21:56.924Z,28.40
2024-04-22T02:22:56.895Z,28.43
2024-04-22T02:23:56.911Z,28.41
2024-04-22T02:24:56.881Z,28.43
2024-04-22T02:25:56.950Z,28.41
2024-04-22T02:26:57.058Z,28.39
2024-04-22T02:27:57.097Z,28.44
2024-04-22T02:28:57.209Z,28.41
2024-04-22T02:29:57.229Z,28.46
2024-04-22T02:30:57.325Z,28.44
2024-04-22T02:31:57.391Z,28.45
2024-04-22T02:32:57.526Z,28.41
2024-04-22T02:33:57.550Z,28.45
2024-04-22T02:34:57.614Z,28.44
2024-04-22T02:35:57.715Z,28.43
2024-04-22T02:36:57.755Z,28.42
2024-04-22T02:37:57.838Z,28.42
2024-04-22T02:38:57.934Z,28.45
2024-04-22T02:39:58.002Z,28.46
2024-04-22T02:40:58.126Z,28.45
2024-04-22T02:41:58.177Z,28.43
2024-04-22T02:42:58.221Z,28.43
2024-04-22T02:43:58.310Z,28.44
2024-04-22T02:44:58.358Z,28.40
2024-04-22T02:45:58.416Z,28.42
2024-04-22T02:46:58.598Z,28.42
2024-04-22T02:47:58.591Z,28.40
2024-04-22T02:48:58.648Z,28.38
2024-04-22T02:49:58.698Z,28.46
2024-04-22T02:50:58.795Z,28.45
2024-04-22T02:51:58.843Z,28.45
2024-04-22T02:52:58.986Z,28.44
2024-04-22T02:53:58.958Z,28.43
2024-04-22T02:54:59.107Z,28.47
2024-04-22T02:55:59.109Z,28.47
2024-04-22T02:56:59.176Z,28.45
2024-04-22T02:57:59.253Z,28.43
2024-04-22T02:58:59.322Z,28.42
2024-04-22T02:59:59.366Z,28.42
2024-04-22T03:00:59.452Z,28.41
2024-04-22T03:01:59.504Z,28.46
2024-04-22T03:02:59.597Z,28.47
2024-04-22T03:03:59.641Z,28.42
2024-04-22T03:04:59.726Z,28.41
2024-04-22T03:05:59.759Z,28.43
2024-04-22T03:06:59.864Z,28.43
2024-04-22T03:07:59.900Z,28.43
2024-04-22T03:08:59.966Z,28.44
2024-04-22T03:10:00.098Z,28.44
2024-04-22T03:11:00.127Z,28.46
2024-04-22T03:12:00.267Z,28.47
2024-04-22T03:13:00.290Z,28.48
2024-04-22T03:14:00.437Z,28.48
2024-04-22T03:15:00.392Z,28.45
2024-04-22T03:16:00.500Z,28.46
2024-04-22T03:17:00.606Z,28.47
2024-04-22T03:18:00.695Z,28.44
2024-04-22T03:19:00.694Z,28.40
2024-04-22T03:20:00.757Z,28.41
2024-04-22T03:21:00.855Z,28.40
2024-04-22T03:22:00.908Z,28.42
2024-04-22T03:23:00.925Z,28.45
2024-04-22T03:24:01.035Z,28.44
2024-04-22T03:25:01.101Z,28.44
2024-04-22T03:26:01.160Z,28.47
2024-04-22T03:27:01.281Z,28.43
2024-04-22T03:28:01.297Z,28.44
2024-04-22T03:29:01.401Z,28.46
2024-04-22T03:30:01.448Z,28.43
2024-04-22T03:31:02.785Z,28.45
2024-04-22T03:32:01.950Z,28.50
2024-04-22T03:33:01.744Z,28.48
2024-04-22T03:34:01.770Z,28.42
2024-04-22T03:35:01.834Z,28.46
2024-04-22T03:36:01.877Z,28.43
2024-04-22T03:37:01.884Z,28.41
2024-04-22T03:38:01.940Z,28.46
2024-04-22T03:39:01.978Z,28.48
2024-04-22T03:40:02.025Z,28.48
2024-04-22T03:41:02.158Z,28.43
2024-04-22T03:42:02.114Z,28.46
2024-04-22T03:43:02.116Z,28.46
2024-04-22T03:44:02.172Z,28.47
2024-04-22T03:45:02.226Z,28.43
2024-04-22T03:46:02.242Z,28.48
2024-04-22T03:47:02.345Z,28.51
2024-04-22T03:48:02.382Z,28.48
2024-04-22T03:49:02.345Z,28.51
2024-04-22T03:50:02.457Z,28.49
2024-04-22T03:51:02.473Z,28.52
2024-04-22T03:52:02.501Z,28.49
2024-04-22T03:53:02.588Z,28.48
2024-04-22T03:54:02.657Z,28.49
2024-04-22T03:55:02.718Z,28.52
2024-04-22T03:56:02.803Z,28.49
2024-04-22T03:57:02.926Z,28.50
2024-04-22T03:58:02.961Z,28.51
2024-04-22T03:59:03.059Z,28.50
2024-04-22T04:00:03.116Z,28.51
2024-04-22T04:01:03.171Z,28.51
2024-04-22T04:02:03.308Z,28.52
2024-04-22T04:03:03.361Z,28.51
2024-04-22T04:04:03.495Z,28.50
2024-04-22T04:05:03.648Z,28.50
2024-04-22T04:06:03.599Z,28.50
2024-04-22T04:07:03.685Z,28.52
2024-04-22T04:08:03.750Z,28.50
2024-04-22T04:09:03.821Z,28.51
2024-04-22T04:10:03.895Z,28.52
2024-04-22T04:11:04.015Z,28.55
2024-04-22T04:12:04.067Z,28.51
2024-04-22T04:13:04.128Z,28.51
2024-04-22T04:14:04.858Z,28.50
2024-04-22T04:15:04.279Z,28.52
2024-04-22T04:16:04.356Z,28.50
2024-04-22T04:17:04.597Z,28.51
2024-04-22T04:18:04.538Z,28.51
2024-04-22T04:19:04.605Z,28.48
2024-04-22T04:20:04.686Z,28.52
2024-04-22T04:21:04.831Z,28.54
2024-04-22T04:22:04.869Z,28.53
2024-04-22T04:23:06.676Z,28.52
2024-04-22T04:24:04.954Z,28.52
2024-04-22T04:25:05.030Z,28.52
2024-04-22T04:26:05.061Z,28.54
2024-04-22T04:27:05.159Z,28.53
2024-04-22T04:28:05.216Z,28.53
2024-04-22T04:29:05.321Z,28.52
2024-04-22T04:30:05.403Z,28.54
2024-04-22T04:31:05.467Z,28.52
2024-04-22T04:32:05.793Z,28.54
2024-04-22T04:33:05.670Z,28.55
2024-04-22T04:34:05.886Z,28.55
2024-04-22T04:35:08.238Z,28.55
2024-04-22T04:36:15.879Z,28.57
2024-04-22T04:37:15.944Z,28.56
2024-04-22T04:38:15.925Z,28.55
2024-04-22T04:39:15.916Z,28.54
2024-04-22T04:40:15.910Z,28.55
2024-04-22T04:41:15.908Z,28.52
2024-04-22T04:42:15.955Z,28.51
2024-04-22T04:43:15.917Z,28.55
2024-04-22T04:44:15.915Z,28.54
2024-04-22T04:45:15.910Z,28.55
2024-04-22T04:46:15.970Z,28.52
2024-04-22T04:47:15.989Z,28.54
2024-04-22T04:48:15.952Z,28.52
2024-04-22T04:49:15.925Z,28.53
2024-04-22T04:50:15.911Z,28.54
2024-04-22T04:51:15.896Z,28.52
2024-04-22T04:52:15.937Z,28.53
2024-04-22T04:53:15.930Z,28.51
2024-04-22T04:54:15.930Z,28.53
2024-04-22T04:55:15.915Z,28.53
2024-04-22T04:56:15.887Z,28.54
2024-04-22T04:57:15.900Z,28.54
2024-04-22T04:58:15.995Z,28.52
2024-04-22T04:59:15.954Z,28.51
2024-04-22T05:00:15.960Z,28.51
2024-04-22T05:01:19.531Z,28.52
2024-04-22T05:02:16.019Z,28.53
2024-04-22T05:03:15.969Z,28.53
2024-04-22T05:04:15.951Z,28.52
2024-04-22T05:05:15.944Z,28.53
2024-04-22T05:06:15.966Z,28.53
2024-04-22T05:07:16.009Z,28.53
2024-04-22T05:08:15.937Z,28.54
2024-04-22T05:09:16.008Z,28.55
2024-04-22T05:10:16.002Z,28.56
2024-04-22T05:11:16.023Z,28.57
2024-04-22T05:12:15.971Z,28.55
2024-04-22T05:13:15.954Z,28.55
2024-04-22T05:14:15.971Z,28.60
2024-04-22T05:15:15.963Z,28.57
2024-04-22T05:16:15.986Z,28.61
2024-04-22T05:17:17.524Z,28.58
2024-04-22T05:18:15.992Z,28.57
2024-04-22T05:19:16.014Z,28.57
2024-04-22T05:20:15.988Z,28.56
2024-04-22T05:21:15.994Z,28.56
2024-04-22T05:22:16.038Z,28.53
2024-04-22T05:23:15.962Z,28.54
2024-04-22T05:24:15.998Z,28.55
2024-04-22T05:25:16.063Z,28.55
2024-04-22T05:26:15.993Z,28.53
2024-04-22T05:27:16.001Z,28.58
2024-04-22T05:28:15.970Z,28.56
2024-04-22T05:29:15.985Z,28.56
2024-04-22T05:30:15.989Z,28.56
2024-04-22T05:31:16.074Z,28.57
2024-04-22T05:32:16.063Z,28.57
2024-04-22T05:33:16.155Z,28.58
2024-04-22T05:34:16.144Z,28.58
2024-04-22T05:35:16.150Z,28.56
2024-04-22T05:36:16.577Z,28.56
2024-04-22T05:37:16.242Z,28.63
2024-04-22T05:38:16.270Z,28.66
2024-04-22T05:39:16.315Z,28.73
2024-04-22T05:40:16.478Z,28.65
2024-04-22T05:41:16.495Z,28.67
2024-04-22T05:42:16.620Z,28.63
2024-04-22T05:43:16.742Z,28.67
2024-04-22T05:44:16.791Z,28.66
2024-04-22T05:45:16.874Z,28.74
2024-04-22T05:46:16.946Z,28.68
2024-04-22T05:47:17.076Z,28.72
2024-04-22T05:48:17.183Z,28.67
2024-04-22T05:49:17.194Z,28.75
2024-04-22T05:50:17.282Z,28.68
2024-04-22T05:51:17.328Z,28.66
2024-04-22T05:52:17.613Z,28.74
2024-04-22T05:53:17.499Z,28.68
2024-04-22T05:54:17.577Z,28.78
2024-04-22T05:55:17.661Z,28.71
2024-04-22T05:56:17.746Z,28.84
2024-04-22T05:57:17.838Z,28.81
2024-04-22T05:58:17.934Z,28.94
2024-04-22T05:59:17.987Z,29.00
2024-04-22T06:00:18.050Z,28.79
2024-04-22T06:01:18.223Z,28.80
2024-04-22T06:02:18.279Z,28.71
2024-04-22T06:03:18.300Z,28.71
2024-04-22T06:04:18.388Z,28.73
2024-04-22T06:05:18.452Z,28.70
2024-04-22T06:06:18.546Z,28.68
2024-04-22T06:07:18.697Z,28.74
2024-04-22T06:08:18.694Z,28.66
2024-04-22T06:09:18.768Z,28.63
2024-04-22T06:10:18.901Z,28.78
2024-04-22T06:11:18.978Z,28.94
2024-04-22T06:12:20.203Z,28.12
2024-04-22T06:13:19.148Z,27.75
2024-04-22T06:14:19.107Z,27.36
2024-04-22T06:15:19.139Z,27.42
2024-04-22T06:16:19.209Z,27.36
2024-04-22T06:17:19.309Z,27.51
2024-04-22T06:18:19.238Z,27.53
2024-04-22T06:19:19.316Z,27.77
2024-04-22T06:20:19.399Z,27.99
2024-04-22T06:21:19.479Z,28.16
2024-04-22T06:22:19.606Z,28.55
2024-04-22T06:23:19.707Z,28.72
2024-04-22T06:24:19.765Z,28.51
2024-04-22T06:25:19.831Z,29.11
2024-04-22T06:26:19.864Z,29.27
2024-04-22T06:27:19.965Z,29.35
2024-04-22T06:28:20.025Z,29.39
2024-04-22T06:29:20.138Z,29.32
2024-04-22T06:30:20.223Z,28.71
2024-04-22T06:31:20.340Z,28.11
2024-04-22T06:32:20.385Z,28.01
2024-04-22T06:33:20.409Z,27.90
2024-04-22T06:34:20.554Z,28.57
2024-04-22T06:35:20.557Z,28.91
2024-04-22T06:36:20.665Z,28.98
2024-04-22T06:37:20.722Z,29.12
2024-04-22T06:38:20.818Z,29.28
2024-04-22T06:39:20.878Z,29.37
2024-04-22T06:40:20.963Z,29.37
2024-04-22T06:41:21.043Z,29.46
2024-04-22T06:42:21.213Z,29.88
2024-04-22T06:43:21.296Z,29.88
2024-04-22T06:44:21.313Z,29.94
2024-04-22T06:45:21.460Z,29.56
2024-04-22T06:46:21.503Z,29.81
2024-04-22T06:47:21.632Z,29.79
2024-04-22T06:48:21.745Z,29.73
2024-04-22T06:49:21.841Z,29.70
2024-04-22T06:50:21.852Z,29.72
2024-04-22T06:51:21.967Z,29.08
2024-04-22T06:52:22.095Z,28.50
2024-04-22T06:53:22.104Z,28.50
2024-04-22T06:54:22.214Z,28.48
2024-04-22T06:55:25.456Z,28.47
2024-04-22T06:56:22.333Z,28.57
2024-04-22T06:57:22.331Z,28.54
2024-04-22T06:58:22.312Z,28.88
2024-04-22T06:59:22.291Z,29.13
2024-04-22T07:00:22.298Z,29.00
2024-04-22T07:01:30.908Z,29.16
2024-04-22T07:02:23.866Z,29.40
2024-04-22T07:03:22.425Z,29.31
2024-04-22T07:04:22.469Z,29.33
2024-04-22T07:05:22.343Z,29.33
2024-04-22T07:06:22.299Z,29.40
2024-04-22T07:07:22.322Z,29.37
2024-04-22T07:08:22.310Z,29.33
2024-04-22T07:09:22.299Z,29.27
2024-04-22T07:10:22.375Z,29.32
2024-04-22T07:11:22.323Z,29.42
2024-04-22T07:12:22.327Z,29.56
2024-04-22T07:13:22.376Z,29.68
2024-04-22T07:14:22.358Z,29.80
2024-04-22T07:15:22.305Z,29.46
2024-04-22T07:16:22.342Z,29.48
2024-04-22T07:17:22.387Z,29.42
2024-04-22T07:18:22.424Z,29.38
2024-04-22T07:19:22.447Z,29.41
2024-04-22T07:20:22.483Z,29.45
2024-04-22T07:21:22.500Z,29.43
2024-04-22T07:22:22.753Z,29.45
2024-04-22T07:23:22.622Z,29.45
2024-04-22T07:24:23.753Z,29.42
2024-04-22T07:25:22.666Z,29.53
2024-04-22T07:26:22.724Z,29.47
2024-04-22T07:27:26.050Z,29.56
2024-04-22T07:28:22.759Z,29.79
2024-04-22T07:29:22.757Z,29.68
2024-04-22T07:30:22.733Z,29.55
2024-04-22T07:31:22.772Z,29.56
2024-04-22T07:32:22.935Z,29.51
2024-04-22T07:33:22.785Z,29.62
2024-04-22T07:34:22.762Z,29.60
2024-04-22T07:35:22.800Z,29.62
2024-04-22T07:36:22.751Z,29.70
2024-04-22T07:37:22.793Z,29.63
2024-04-22T07:38:22.764Z,29.77
2024-04-22T07:39:22.758Z,29.82
2024-04-22T07:40:22.857Z,29.89
2024-04-22T07:41:22.941Z,30.89
2024-04-22T07:42:23.017Z,30.20
2024-04-22T07:43:23.093Z,29.94
2024-04-22T07:44:23.122Z,29.77
2024-04-22T07:46:12.923Z,29.67
2024-04-22T07:47:12.951Z,29.56
2024-04-22T07:48:12.954Z,29.54
2024-04-22T07:49:12.928Z,29.51
2024-04-22T07:50:12.947Z,29.40
2024-04-22T07:51:12.930Z,29.27
2024-04-22T07:52:12.920Z,29.21
2024-04-22T07:53:12.903Z,29.15
2024-04-22T07:54:12.918Z,29.09
2024-04-22T07:55:12.944Z,29.01
2024-04-22T07:56:12.921Z,28.94
2024-04-22T07:57:12.925Z,28.87
2024-04-22T07:58:12.942Z,28.83
2024-04-22T07:59:12.919Z,28.81
2024-04-22T08:00:13.101Z,28.73
2024-04-22T08:01:13.204Z,28.64
2024-04-22T08:02:12.944Z,28.55
2024-04-22T08:03:13.036Z,28.45
2024-04-22T08:04:12.964Z,28.53
2024-04-22T08:05:12.940Z,28.50
2024-04-22T08:06:12.933Z,28.31
2024-04-22T08:07:12.977Z,28.18
2024-04-22T08:08:12.984Z,28.15
2024-04-22T08:09:12.996Z,28.09
2024-04-22T08:10:13.021Z,28.12
2024-04-22T08:11:13.023Z,27.98
2024-04-22T08:12:12.966Z,27.98
2024-04-22T08:13:13.017Z,28.06
2024-04-22T08:14:12.945Z,27.88
2024-04-22T08:15:12.976Z,27.92
2024-04-22T08:16:13.004Z,27.93
2024-04-22T08:17:13.078Z,27.88
2024-04-22T08:18:13.006Z,27.85
2024-04-22T08:19:13.016Z,27.74
2024-04-22T08:20:12.968Z,27.74
2024-04-22T08:21:12.962Z,27.73
2024-04-22T08:22:13.006Z,27.73
2024-04-22T08:23:13.111Z,27.82
2024-04-22T08:24:13.143Z,27.74
2024-04-22T08:25:13.310Z,27.65
2024-04-22T08:26:13.401Z,27.52
2024-04-22T08:27:13.513Z,27.44
2024-04-22T08:28:13.585Z,27.47
2024-04-22T08:29:13.689Z,27.47
2024-04-22T08:30:13.835Z,27.39
2024-04-22T08:31:14.019Z,27.45
2024-04-22T08:32:14.042Z,27.44
2024-04-22T08:33:14.208Z,27.33
2024-04-22T08:34:14.331Z,27.33
2024-04-22T08:35:14.373Z,27.25
2024-04-22T08:36:14.502Z,27.28
2024-04-22T08:37:14.641Z,27.27
2024-04-22T08:38:14.748Z,27.24
2024-04-22T08:39:14.846Z,27.27
2024-04-22T08:40:16.275Z,27.24
2024-04-22T08:41:14.969Z,27.14
2024-04-22T08:42:14.974Z,27.12
2024-04-22T08:43:15.120Z,27.15
2024-04-22T08:44:14.968Z,27.13
2024-04-22T08:45:14.971Z,27.08
2024-04-22T08:46:15.007Z,27.05
2024-04-22T08:47:15.038Z,26.94
2024-04-22T08:48:15.075Z,26.90
2024-04-22T08:49:15.001Z,26.86
2024-04-22T08:50:14.965Z,26.84
2024-04-22T08:51:14.966Z,26.83
2024-04-22T08:52:15.137Z,26.81
2024-04-22T08:53:14.974Z,26.82
2024-04-22T08:54:18.334Z,26.81
2024-04-22T08:55:16.000Z,26.81
2024-04-22T08:56:14.979Z,26.86
2024-04-22T08:57:15.012Z,26.80
2024-04-22T08:58:15.013Z,26.83
2024-04-22T08:59:22.126Z,26.70
2024-04-22T09:00:15.998Z,26.68
2024-04-22T09:01:15.023Z,26.72
2024-04-22T09:02:15.011Z,26.76
2024-04-22T09:03:15.190Z,26.77
2024-04-22T09:04:15.088Z,26.79
2024-04-22T09:05:15.115Z,26.72
2024-04-22T09:06:15.252Z,26.64
2024-04-22T09:07:15.043Z,26.59
2024-04-22T09:08:15.038Z,26.63
2024-04-22T09:09:22.793Z,26.63
2024-04-22T09:10:49.002Z,26.60
2024-04-22T09:11:45.740Z,26.57
2024-04-22T09:12:17.178Z,26.61
2024-04-22T09:13:15.382Z,26.50
2024-04-22T09:14:15.204Z,26.54
2024-04-22T09:15:15.179Z,26.54
2024-04-22T09:16:15.240Z,26.46
2024-04-22T09:17:15.288Z,26.44
2024-04-22T09:18:15.482Z,26.44
2024-04-22T09:19:15.246Z,26.46
2024-04-22T09:20:15.394Z,26.41
2024-04-22T09:21:15.323Z,26.36
2024-04-22T09:22:15.466Z,26.38
2024-04-22T09:23:15.393Z,26.42
2024-04-22T09:24:15.353Z,26.42
2024-04-22T09:25:15.604Z,26.46
2024-04-22T09:26:15.541Z,26.38
2024-04-22T09:27:15.446Z,26.33
2024-04-22T09:28:15.556Z,26.35
2024-04-22T09:29:15.601Z,26.33
2024-04-22T09:30:15.697Z,26.29
2024-04-22T09:31:15.717Z,26.29
2024-04-22T09:32:15.975Z,26.31
2024-04-22T09:33:15.968Z,26.28
2024-04-22T09:34:16.192Z,26.28
2024-04-22T09:35:18.591Z,26.34
2024-04-22T09:36:16.120Z,26.40
2024-04-22T09:37:16.219Z,26.34
2024-04-22T09:38:16.382Z,26.33
2024-04-22T09:39:16.048Z,26.40
2024-04-22T09:40:16.361Z,26.29
2024-04-22T09:41:16.472Z,26.38
2024-04-22T09:42:16.083Z,26.43
2024-04-22T09:43:16.058Z,26.29
2024-04-22T09:44:18.174Z,26.31
2024-04-22T09:45:16.174Z,26.32
2024-04-22T09:46:16.063Z,26.35
2024-04-22T09:47:16.094Z,26.26
2024-04-22T09:48:16.144Z,26.12
2024-04-22T09:49:16.233Z,26.06
2024-04-22T09:50:16.054Z,26.01
2024-04-22T09:51:16.247Z,26.09
2024-04-22T09:52:16.091Z,26.09
2024-04-22T09:53:16.189Z,26.06
2024-04-22T09:54:16.062Z,26.07
2024-04-22T09:55:16.145Z,26.03
2024-04-22T09:56:16.367Z,25.98
2024-04-22T09:57:16.039Z,25.95
2024-04-22T09:58:16.087Z,25.96
2024-04-22T09:59:16.176Z,26.03
2024-04-22T10:00:16.078Z,25.95
2024-04-22T10:01:16.100Z,25.93
2024-04-22T10:02:16.223Z,25.99
2024-04-22T10:03:16.128Z,25.99
2024-04-22T10:04:16.226Z,25.99
2024-04-22T10:05:16.163Z,25.93
2024-04-22T10:06:16.292Z,25.94
2024-04-22T10:07:16.127Z,25.93
2024-04-22T10:08:16.177Z,25.93
2024-04-22T10:09:16.064Z,25.92
2024-04-22T10:10:16.184Z,25.90
2024-04-22T10:11:16.246Z,25.95
2024-04-22T10:12:18.369Z,26.00
2024-04-22T10:13:16.120Z,25.97
2024-04-22T10:14:16.529Z,25.94
2024-04-22T10:15:16.176Z,25.93
2024-04-22T10:16:16.460Z,25.96
2024-04-22T10:17:16.296Z,25.87
2024-04-22T10:18:16.627Z,25.88
2024-04-22T10:19:16.533Z,25.90
2024-04-22T10:20:16.548Z,25.91
2024-04-22T10:21:16.422Z,25.91
2024-04-22T10:22:18.094Z,25.89
2024-04-22T10:23:16.523Z,25.89
2024-04-22T10:24:16.570Z,25.90
2024-04-22T10:25:16.617Z,25.93
2024-04-22T10:26:16.616Z,25.95
2024-04-22T10:27:16.706Z,25.94
2024-04-22T10:28:16.752Z,25.93
2024-04-22T10:29:16.768Z,25.97
2024-04-22T10:30:16.838Z,25.95
2024-04-22T10:31:16.864Z,25.91
2024-04-22T10:32:16.962Z,25.88
2024-04-22T10:33:17.019Z,25.85
2024-04-22T10:34:17.008Z,25.94
2024-04-22T10:35:16.985Z,25.92
2024-04-22T10:36:17.023Z,25.90
2024-04-22T10:37:17.158Z,25.93
2024-04-22T10:38:17.109Z,26.04
2024-04-22T10:39:17.258Z,26.02
2024-04-22T10:40:17.289Z,25.98
2024-04-22T10:41:17.337Z,26.01
2024-04-22T10:42:17.507Z,26.08
2024-04-22T10:43:17.506Z,25.93
2024-04-22T10:44:17.590Z,25.94
2024-04-22T10:45:17.777Z,25.90
2024-04-22T10:46:17.795Z,25.91
2024-04-22T10:47:17.962Z,25.89
2024-04-22T10:48:19.168Z,25.87
2024-04-22T10:49:19.219Z,25.89
2024-04-22T10:50:18.655Z,25.98
2024-04-22T10:51:18.103Z,26.00
2024-04-22T10:52:18.192Z,25.85
2024-04-22T10:53:18.110Z,25.89
2024-04-22T10:54:18.182Z,25.87
2024-04-22T10:55:18.404Z,25.81
2024-04-22T10:56:18.239Z,25.87
2024-04-22T10:57:18.289Z,25.91
2024-04-22T10:58:18.349Z,26.02
2024-04-22T10:59:18.414Z,25.94
2024-04-22T11:00:18.460Z,25.95
2024-04-22T11:01:18.661Z,25.97
2024-04-22T11:02:18.828Z,25.94
2024-04-22T11:03:18.783Z,25.93
2024-04-22T11:04:18.980Z,26.02
2024-04-22T11:05:19.405Z,25.96
2024-04-22T11:06:19.053Z,25.97
2024-04-22T11:07:19.238Z,26.01
2024-04-22T11:08:19.366Z,26.17
2024-04-22T11:09:19.438Z,26.18
2024-04-22T11:10:27.888Z,26.12
2024-04-22T11:11:20.614Z,26.12
2024-04-22T11:12:21.098Z,26.24
2024-04-22T11:13:19.728Z,26.38
2024-04-22T11:14:19.738Z,26.41
2024-04-22T11:15:19.752Z,26.19
2024-04-22T11:16:19.847Z,26.13
2024-04-22T11:17:19.821Z,26.14
2024-04-22T11:18:19.806Z,26.11
2024-04-22T11:19:19.910Z,26.03
2024-04-22T11:20:19.880Z,26.14
2024-04-22T11:21:20.035Z,26.11
2024-04-22T11:22:20.336Z,26.10
2024-04-22T11:23:20.287Z,26.14
2024-04-22T11:24:20.312Z,26.63
2024-04-22T11:25:20.455Z,26.42
2024-04-22T11:26:20.498Z,26.56
2024-04-22T11:27:20.649Z,26.62
2024-04-22T11:28:20.731Z,26.69
2024-04-22T11:29:21.144Z,26.69
2024-04-22T11:30:21.020Z,26.83
2024-04-22T11:31:21.252Z,26.69
2024-04-22T11:32:21.283Z,26.67
2024-04-22T11:33:21.368Z,26.71
2024-04-22T11:34:21.444Z,26.70
2024-04-22T11:35:21.524Z,26.74
2024-04-22T11:36:21.627Z,26.76
2024-04-22T11:37:21.801Z,26.77
2024-04-22T11:38:21.795Z,26.81
2024-04-22T11:39:21.921Z,26.82
2024-04-22T11:40:22.050Z,26.85
2024-04-22T11:41:22.109Z,26.84
2024-04-22T11:42:22.236Z,26.84
2024-04-22T11:43:22.298Z,26.84
2024-04-22T11:44:22.357Z,26.87
2024-04-22T11:45:22.520Z,26.83
2024-04-22T11:46:22.594Z,26.85
2024-04-22T11:47:22.749Z,26.80
2024-04-22T11:48:22.749Z,26.95
2024-04-22T11:49:22.776Z,27.00
2024-04-22T11:50:22.809Z,26.98
2024-04-22T11:51:22.936Z,27.03
2024-04-22T11:52:23.034Z,26.94
2024-04-22T11:53:25.640Z,26.92
2024-04-22T11:54:23.087Z,26.93
2024-04-22T11:55:23.126Z,26.89
2024-04-22T11:56:23.097Z,26.98
2024-04-22T11:58:25.992Z,26.88
2024-04-22T11:59:25.959Z,26.88
2024-04-22T12:00:25.939Z,26.98
2024-04-22T12:01:25.943Z,26.87
2024-04-22T12:02:25.954Z,26.89
2024-04-22T12:03:25.938Z,26.87
2024-04-22T12:04:26.169Z,26.86
2024-04-22T12:05:26.090Z,26.91
2024-04-22T12:06:25.965Z,26.86
2024-04-22T12:07:25.992Z,26.87
2024-04-22T12:08:25.959Z,26.87
2024-04-22T12:09:25.951Z,26.86
2024-04-22T12:10:25.995Z,26.87
2024-04-22T12:11:26.065Z,26.87
2024-04-22T12:12:25.960Z,26.90
2024-04-22T12:13:26.009Z,26.88
2024-04-22T12:14:25.977Z,26.90
2024-04-22T12:15:25.972Z,26.91
2024-04-22T12:16:26.034Z,26.92
2024-04-22T12:17:26.054Z,26.93
2024-04-22T12:18:26.011Z,26.98
2024-04-22T12:19:26.016Z,26.97
2024-04-22T12:20:26.002Z,27.02
2024-04-22T12:21:26.002Z,27.01
2024-04-22T12:22:25.999Z,27.02
2024-04-22T12:23:25.985Z,27.06
2024-04-22T12:24:25.951Z,27.05
2024-04-22T12:25:26.031Z,27.07
2024-04-22T12:26:26.002Z,27.07
2024-04-22T12:27:26.014Z,27.11
2024-04-22T12:28:26.041Z,27.12
2024-04-22T12:29:26.035Z,27.11
2024-04-22T12:30:25.996Z,27.17
2024-04-22T12:31:26.041Z,27.18
2024-04-22T12:32:26.069Z,27.15
2024-04-22T12:33:26.216Z,27.19
2024-04-22T12:34:26.098Z,27.19
2024-04-22T12:35:26.033Z,27.24
2024-04-22T12:36:26.024Z,27.20
2024-04-22T12:37:26.019Z,27.21
2024-04-22T12:38:26.026Z,27.25
2024-04-22T12:39:26.039Z,27.26
2024-04-22T12:40:26.025Z,27.26
2024-04-22T12:41:26.015Z,27.27
2024-04-22T12:42:26.053Z,27.28
2024-04-22T12:43:26.042Z,27.29
2024-04-22T12:44:26.023Z,27.30
2024-04-22T12:45:26.015Z,27.30
2024-04-22T12:46:26.080Z,27.31
2024-04-22T12:47:26.194Z,27.32
2024-04-22T12:48:26.192Z,27.31
2024-04-22T12:49:26.227Z,27.34
2024-04-22T12:50:26.268Z,27.32
2024-04-22T12:51:26.330Z,27.35
2024-04-22T12:52:26.449Z,27.39
2024-04-22T12:53:26.492Z,27.39
2024-04-22T12:54:27.354Z,27.40
2024-04-22T12:55:26.780Z,27.41